createdAt,value
2023-02-04T00:01:36.253Z,0.52
2023-02-04T00:04:02.669Z,0.60
2023-02-04T00:06:29.253Z,0.52
2023-02-04T00:08:55.775Z,0.80
2023-02-04T00:11:22.246Z,0.50
2023-02-04T00:13:48.787Z,0.32
2023-02-04T00:16:17.072Z,0.40
2023-02-04T00:18:43.473Z,0.65
2023-02-04T00:21:09.872Z,0.40
2023-02-04T00:23:36.290Z,0.22
2023-02-04T00:26:02.770Z,0.30
2023-02-04T00:28:29.194Z,0.43
2023-02-04T00:30:55.641Z,0.38
2023-02-04T00:33:22.059Z,0.30
2023-02-04T00:35:48.462Z,0.20
2023-02-04T00:38:15.104Z,0.30
2023-02-04T00:40:41.510Z,0.20
2023-02-04T00:43:07.918Z,0.20
2023-02-04T00:45:34.409Z,0.20
2023-02-04T00:48:00.932Z,0.38
2023-02-04T00:50:27.361Z,0.10
2023-02-04T00:52:53.849Z,0.38
2023-02-04T00:55:20.320Z,0.20
2023-02-04T00:57:49.690Z,0.30
2023-02-04T01:00:16.236Z,0.17
2023-02-04T01:02:44.323Z,0.10
2023-02-04T01:05:13.138Z,0.20
2023-02-04T01:07:39.642Z,0.30
2023-02-04T01:10:06.368Z,0.20
2023-02-04T01:12:32.863Z,0.30
2023-02-04T01:14:59.435Z,0.20
2023-02-04T01:17:25.956Z,0.30
2023-02-04T01:19:54.723Z,0.10
2023-02-04T01:22:21.138Z,0.20
2023-02-04T01:24:49.025Z,0.30
2023-02-04T01:27:15.751Z,0.20
2023-02-04T01:29:42.304Z,0.20
2023-02-04T01:32:08.715Z,0.20
2023-02-04T01:34:35.165Z,0.20
2023-02-04T01:37:01.600Z,0.30
2023-02-04T01:39:30.324Z,0.55
2023-02-04T01:41:57.949Z,0.52
2023-02-04T01:44:24.369Z,0.70
2023-02-04T01:46:50.789Z,1.40
2023-02-04T01:49:17.532Z,1.92
2023-02-04T01:51:44.066Z,2.55
2023-02-04T01:54:14.351Z,2.50
2023-02-04T01:56:43.050Z,2.80
2023-02-04T01:59:12.587Z,3.15
2023-02-04T02:01:43.870Z,3.10
2023-02-04T02:04:11.261Z,3.53
2023-02-04T02:06:39.134Z,3.50
2023-02-04T02:09:05.855Z,3.55
2023-02-04T02:11:32.781Z,3.70
2023-02-04T02:13:59.299Z,3.47
2023-02-04T02:16:25.781Z,3.55
2023-02-04T02:18:55.284Z,3.95
2023-02-04T02:21:38.174Z,3.58
2023-02-04T02:24:25.769Z,3.70
2023-02-04T02:26:52.957Z,3.50
2023-02-04T02:29:21.505Z,3.63
2023-02-04T02:31:49.811Z,3.92
2023-02-04T02:34:16.430Z,3.70
2023-02-04T02:36:42.827Z,3.10
2023-02-04T02:39:09.304Z,3.30
2023-02-04T02:41:35.799Z,3.33
2023-02-04T02:44:02.898Z,2.97
2023-02-04T02:46:29.392Z,2.75
2023-02-04T02:48:55.940Z,2.72
2023-02-04T02:51:22.380Z,2.70
2023-02-04T02:53:49.550Z,2.42
2023-02-04T02:56:17.243Z,2.13
2023-02-04T02:58:43.694Z,2.17
2023-02-04T03:01:10.720Z,2.20
2023-02-04T03:03:41.221Z,1.95
2023-02-04T03:06:15.109Z,2.30
2023-02-04T03:08:41.929Z,2.28
2023-02-04T03:11:08.410Z,1.92
2023-02-04T03:13:35.158Z,1.80
2023-02-04T03:16:01.844Z,1.60
2023-02-04T03:18:28.341Z,1.55
2023-02-04T03:20:55.007Z,1.38
2023-02-04T03:23:21.619Z,1.27
2023-02-04T03:25:48.047Z,1.35
2023-02-04T03:28:14.766Z,1.02
2023-02-04T03:30:41.312Z,0.90
2023-02-04T03:33:07.907Z,1.10
2023-02-04T03:35:43.097Z,0.77
2023-02-04T03:38:09.511Z,0.80
2023-02-04T03:40:36.029Z,0.80
2023-02-04T03:43:03.812Z,0.70
2023-02-04T03:45:37.494Z,0.80
2023-02-04T03:48:10.348Z,1.10
2023-02-04T03:50:36.730Z,0.82
2023-02-04T03:53:03.244Z,0.82
2023-02-04T03:55:29.715Z,0.73
2023-02-04T03:57:56.110Z,1.10
2023-02-04T04:00:22.655Z,0.70
2023-02-04T04:02:49.372Z,1.00
2023-02-04T04:05:16.116Z,1.00
2023-02-04T04:07:42.586Z,0.90
2023-02-04T04:10:09.235Z,1.00
2023-02-04T04:12:35.642Z,0.80
2023-02-04T04:15:02.233Z,1.00
2023-02-04T04:17:28.698Z,1.10
2023-02-04T04:19:55.103Z,0.98
2023-02-04T04:22:21.647Z,1.10
2023-02-04T04:24:48.062Z,1.27
2023-02-04T04:27:14.469Z,1.17
2023-02-04T04:29:40.896Z,1.60
2023-02-04T04:32:07.558Z,1.77
2023-02-04T04:34:34.245Z,1.58
2023-02-04T04:37:00.827Z,1.50
2023-02-04T04:39:27.432Z,1.30
2023-02-04T04:41:53.860Z,1.55
2023-02-04T04:44:20.306Z,1.58
2023-02-04T04:46:46.783Z,1.60
2023-02-04T04:49:13.259Z,1.60
2023-02-04T04:51:39.645Z,1.98
2023-02-04T04:54:06.210Z,1.52
2023-02-04T04:56:32.621Z,1.70
2023-02-04T04:58:59.032Z,1.70
2023-02-04T05:01:25.488Z,1.58
2023-02-04T05:03:51.922Z,1.70
2023-02-04T05:06:18.356Z,1.80
2023-02-04T05:08:44.947Z,1.77
2023-02-04T05:11:11.348Z,1.25
2023-02-04T05:13:37.800Z,1.58
2023-02-04T05:16:04.376Z,1.70
2023-02-04T05:18:30.775Z,2.15
2023-02-04T05:20:57.210Z,1.92
2023-02-04T05:23:23.704Z,2.03
2023-02-04T05:25:50.138Z,2.00
2023-02-04T05:28:16.743Z,1.75
2023-02-04T05:30:43.308Z,1.95
2023-02-04T05:33:09.778Z,2.30
2023-02-04T05:35:36.216Z,2.00
2023-02-04T05:38:02.711Z,1.60
2023-02-04T05:40:31.354Z,1.63
2023-02-04T05:43:00.611Z,1.85
2023-02-04T05:45:29.389Z,2.00
2023-02-04T05:47:55.881Z,2.05
2023-02-04T05:50:22.359Z,2.00
2023-02-04T05:52:48.799Z,1.60
2023-02-04T05:55:15.308Z,1.83
2023-02-04T05:57:41.696Z,1.75
2023-02-04T06:00:08.785Z,1.60
2023-02-04T06:02:36.293Z,1.92
2023-02-04T06:05:02.752Z,2.00
2023-02-04T06:07:29.174Z,1.88
2023-02-04T06:09:55.586Z,1.92
2023-02-04T06:12:22.006Z,2.30
2023-02-04T06:14:48.396Z,2.08
2023-02-04T06:17:14.861Z,1.95
2023-02-04T06:19:41.283Z,1.75
2023-02-04T06:22:07.702Z,2.00
2023-02-04T06:24:34.105Z,1.90
2023-02-04T06:27:00.542Z,1.83
2023-02-04T06:29:26.939Z,2.03
2023-02-04T06:31:53.514Z,2.03
2023-02-04T06:34:20.151Z,2.17
2023-02-04T06:36:46.552Z,1.90
2023-02-04T06:39:12.939Z,1.90
2023-02-04T06:41:39.369Z,2.10
2023-02-04T06:44:05.784Z,1.90
2023-02-04T06:46:32.277Z,2.35
2023-02-04T06:48:58.792Z,1.80
2023-02-04T06:51:26.095Z,2.05
2023-02-04T06:53:52.725Z,2.03
2023-02-04T06:56:19.183Z,2.10
2023-02-04T06:58:45.573Z,1.77
2023-02-04T07:01:14.512Z,2.13
2023-02-04T07:03:40.970Z,2.10
2023-02-04T07:06:07.362Z,2.10
2023-02-04T07:08:33.864Z,2.28
2023-02-04T07:11:00.327Z,1.92
2023-02-04T07:13:26.733Z,1.92
2023-02-04T07:15:53.241Z,1.92
2023-02-04T07:18:20.086Z,2.22
2023-02-04T07:20:46.508Z,1.70
2023-02-04T07:23:14.742Z,1.58
2023-02-04T07:25:41.293Z,1.85
2023-02-04T07:28:09.666Z,1.60
2023-02-04T07:30:36.288Z,1.73
2023-02-04T07:33:02.851Z,1.60
2023-02-04T07:35:30.916Z,1.85
2023-02-04T07:37:57.292Z,1.67
2023-02-04T07:40:23.786Z,1.63
2023-02-04T07:42:50.248Z,1.77
2023-02-04T07:45:16.690Z,2.15
2023-02-04T07:47:47.480Z,1.63
2023-02-04T07:50:13.998Z,1.60
2023-02-04T07:52:40.493Z,1.60
2023-02-04T07:55:07.034Z,1.40
2023-02-04T07:57:33.542Z,1.38
2023-02-04T08:00:00.103Z,1.27
2023-02-04T08:02:27.071Z,1.73
2023-02-04T08:04:53.511Z,1.40
2023-02-04T08:07:19.980Z,1.10
2023-02-04T08:09:47.232Z,1.48
2023-02-04T08:12:13.723Z,1.27
2023-02-04T08:14:40.112Z,1.10
2023-02-04T08:17:06.585Z,1.27
2023-02-04T08:19:33.040Z,1.38
2023-02-04T08:21:59.508Z,1.60
2023-02-04T08:24:27.101Z,1.10
2023-02-04T08:26:53.492Z,1.00
2023-02-04T08:29:20.164Z,1.30
2023-02-04T08:31:47.882Z,1.30
2023-02-04T08:34:14.504Z,1.15
2023-02-04T08:36:41.015Z,1.20
2023-02-04T08:39:07.405Z,1.20
2023-02-04T08:41:36.252Z,1.30
2023-02-04T08:44:02.679Z,1.20
2023-02-04T08:46:29.267Z,1.13
2023-02-04T08:48:55.917Z,1.27
2023-02-04T08:51:22.335Z,1.05
2023-02-04T08:53:48.732Z,1.30
2023-02-04T08:56:20.460Z,1.40
2023-02-04T08:58:48.208Z,1.02
2023-02-04T09:01:14.833Z,1.30
2023-02-04T09:03:43.026Z,1.05
2023-02-04T09:06:10.018Z,1.30
2023-02-04T09:08:39.004Z,1.23
2023-02-04T09:11:05.603Z,1.30
2023-02-04T09:13:32.801Z,1.10
2023-02-04T09:15:59.264Z,1.30
2023-02-04T09:18:26.156Z,1.20
2023-02-04T09:20:52.951Z,1.40
2023-02-04T09:23:19.506Z,1.13
2023-02-04T09:25:45.990Z,1.27
2023-02-04T09:28:14.778Z,1.40
2023-02-04T09:30:42.451Z,1.50
2023-02-04T09:33:09.569Z,1.30
2023-02-04T09:35:36.145Z,1.40
2023-02-04T09:38:02.701Z,1.45
2023-02-04T09:40:31.195Z,1.20
2023-02-04T09:42:58.649Z,1.20
2023-02-04T09:45:28.130Z,1.67
2023-02-04T09:47:58.272Z,1.30
2023-02-04T09:50:28.588Z,1.40
2023-02-04T09:52:56.511Z,1.50
2023-02-04T09:55:25.278Z,1.73
2023-02-04T09:57:51.693Z,1.75
2023-02-04T10:00:21.235Z,1.30
2023-02-04T10:02:47.666Z,1.48
2023-02-04T10:05:33.691Z,1.52
2023-02-04T10:08:00.449Z,1.38
2023-02-04T10:10:27.545Z,1.50
2023-02-04T10:12:56.453Z,1.45
2023-02-04T10:15:23.109Z,1.58
2023-02-04T10:17:54.842Z,1.58
2023-02-04T10:20:22.510Z,1.35
2023-02-04T10:22:50.361Z,1.45
2023-02-04T10:25:21.303Z,1.63
2023-02-04T10:27:51.882Z,1.55
2023-02-04T10:30:22.131Z,1.60
2023-02-04T10:32:48.691Z,1.45
2023-02-04T10:35:16.387Z,1.60
2023-02-04T10:37:43.012Z,1.60
2023-02-04T10:40:29.336Z,1.50
2023-02-04T10:42:57.739Z,1.65
2023-02-04T10:45:28.282Z,1.40
2023-02-04T10:47:55.493Z,1.58
2023-02-04T10:50:23.072Z,1.63
2023-02-04T10:52:51.247Z,1.23
2023-02-04T10:55:18.988Z,1.30
2023-02-04T10:57:46.677Z,1.30
2023-02-04T11:00:19.196Z,1.48
2023-02-04T11:02:49.284Z,1.60
2023-02-04T11:05:17.590Z,1.60
2023-02-04T11:07:44.577Z,1.55
2023-02-04T11:10:15.734Z,1.60
2023-02-04T11:12:46.674Z,1.42
2023-02-04T11:15:31.903Z,1.13
2023-02-04T11:18:05.565Z,1.60
2023-02-04T11:20:37.221Z,1.45
2023-02-04T11:23:22.324Z,1.50
2023-02-04T11:25:48.876Z,1.52
2023-02-04T11:28:25.601Z,1.38
2023-02-04T11:31:02.155Z,1.25
2023-02-04T11:33:37.623Z,1.40
2023-02-04T11:36:05.276Z,1.48
2023-02-04T11:38:32.587Z,1.35
2023-02-04T11:40:59.708Z,1.50
2023-02-04T11:43:27.197Z,1.13
2023-02-04T11:46:04.751Z,1.10
2023-02-04T11:48:31.853Z,1.25
2023-02-04T11:50:58.885Z,1.33
2023-02-04T11:53:29.386Z,1.10
2023-02-04T11:55:55.776Z,1.30
2023-02-04T11:58:26.040Z,1.10
2023-02-04T12:00:54.660Z,0.90
2023-02-04T12:03:31.222Z,1.10
2023-02-04T12:06:00.476Z,1.00
2023-02-04T12:08:33.166Z,1.00
2023-02-04T12:11:04.789Z,0.90
2023-02-04T12:13:31.660Z,1.00
2023-02-04T12:15:59.844Z,0.90
2023-02-04T12:18:29.248Z,0.80
2023-02-04T12:20:56.666Z,0.60
2023-02-04T12:23:23.497Z,0.77
2023-02-04T12:25:50.221Z,0.80
2023-02-04T12:28:16.841Z,0.60
2023-02-04T12:30:43.321Z,0.60
2023-02-04T12:33:09.934Z,0.60
2023-02-04T12:35:36.564Z,0.60
2023-02-04T12:38:03.105Z,0.90
2023-02-04T12:40:29.731Z,0.80
2023-02-04T12:42:56.137Z,0.60
2023-02-04T12:45:22.625Z,0.60
2023-02-04T12:47:49.036Z,0.75
2023-02-04T12:50:22.542Z,1.00
2023-02-04T12:52:58.865Z,0.90
2023-02-04T12:55:26.914Z,0.70
2023-02-04T12:57:53.651Z,0.77
2023-02-04T13:00:21.026Z,0.60
2023-02-04T13:02:47.743Z,0.75
2023-02-04T13:05:14.379Z,0.82
2023-02-04T13:07:41.035Z,0.82
2023-02-04T13:10:10.749Z,0.60
2023-02-04T13:12:37.278Z,0.60
2023-02-04T13:15:04.182Z,0.70
2023-02-04T13:17:30.600Z,0.65
2023-02-04T13:19:57.033Z,0.75
2023-02-04T13:22:23.593Z,0.70
2023-02-04T13:24:49.988Z,0.70
2023-02-04T13:27:16.442Z,0.90
2023-02-04T13:29:42.880Z,0.88
2023-02-04T13:32:09.815Z,0.60
2023-02-04T13:34:36.365Z,0.75
2023-02-04T13:37:02.966Z,0.80
2023-02-04T13:39:29.962Z,0.73
2023-02-04T13:41:58.335Z,0.80
2023-02-04T13:44:24.784Z,0.70
2023-02-04T13:46:52.017Z,0.77
2023-02-04T13:49:18.515Z,0.93
2023-02-04T13:51:44.940Z,0.80
2023-02-04T13:54:11.369Z,0.63
2023-02-04T13:56:37.811Z,0.80
2023-02-04T13:59:04.316Z,1.02
2023-02-04T14:01:31.273Z,0.73
2023-02-04T14:03:57.792Z,0.65
2023-02-04T14:06:25.432Z,0.73
2023-02-04T14:08:52.930Z,0.70
2023-02-04T14:11:19.308Z,0.85
2023-02-04T14:13:45.789Z,0.80
2023-02-04T14:16:12.302Z,1.00
2023-02-04T14:18:38.773Z,0.75
2023-02-04T14:21:05.324Z,0.60
2023-02-04T14:23:31.751Z,0.90
2023-02-04T14:25:58.260Z,0.73
2023-02-04T14:28:24.777Z,0.55
2023-02-04T14:30:51.337Z,0.85
2023-02-04T14:33:18.328Z,0.73
2023-02-04T14:35:51.075Z,0.68
2023-02-04T14:38:18.530Z,0.70
2023-02-04T14:40:47.122Z,0.75
2023-02-04T14:43:13.588Z,0.70
2023-02-04T14:45:40.980Z,0.75
2023-02-04T14:48:08.670Z,0.80
2023-02-04T14:50:45.848Z,0.80
2023-02-04T14:53:12.301Z,0.90
2023-02-04T14:55:38.730Z,0.90
2023-02-04T14:58:05.391Z,0.95
2023-02-04T15:00:33.998Z,0.73
2023-02-04T15:03:03.504Z,1.10
2023-02-04T15:05:30.027Z,0.82
2023-02-04T15:07:56.490Z,1.02
2023-02-04T15:10:24.616Z,0.90
2023-02-04T15:12:51.524Z,0.90
2023-02-04T15:15:17.989Z,0.90
2023-02-04T15:17:44.504Z,0.70
2023-02-04T15:20:11.332Z,0.90
2023-02-04T15:22:37.850Z,0.45
2023-02-04T15:25:05.043Z,0.63
2023-02-04T15:27:31.572Z,0.80
2023-02-04T15:29:58.044Z,0.70
2023-02-04T15:32:24.487Z,0.70
2023-02-04T15:34:50.836Z,0.65
2023-02-04T15:37:17.272Z,0.90
2023-02-04T15:39:45.419Z,0.63
2023-02-04T15:42:11.991Z,1.10
2023-02-04T15:44:38.556Z,0.85
2023-02-04T15:47:06.494Z,0.88
2023-02-04T15:49:33.888Z,0.68
2023-02-04T15:52:00.435Z,0.70
2023-02-04T15:54:35.434Z,0.80
2023-02-04T15:57:01.955Z,0.70
2023-02-04T15:59:28.384Z,0.70
2023-02-04T16:01:54.938Z,0.90
2023-02-04T16:04:21.418Z,1.20
2023-02-04T16:06:58.058Z,1.08
2023-02-04T16:09:24.895Z,0.82
2023-02-04T16:11:51.388Z,0.90
2023-02-04T16:14:17.775Z,1.10
2023-02-04T16:16:44.275Z,1.10
2023-02-04T16:19:13.257Z,1.02
2023-02-04T16:21:39.685Z,1.08
2023-02-04T16:24:06.244Z,1.00
2023-02-04T16:26:32.731Z,1.13
2023-02-04T16:29:00.376Z,1.20
2023-02-04T16:31:26.939Z,1.27
2023-02-04T16:33:53.415Z,1.15
2023-02-04T16:36:19.920Z,1.13
2023-02-04T16:38:51.334Z,1.15
2023-02-04T16:41:17.866Z,1.40
2023-02-04T16:43:44.242Z,1.40
2023-02-04T16:46:12.922Z,1.08
2023-02-04T16:48:41.162Z,1.00
2023-02-04T16:51:07.560Z,1.10
2023-02-04T16:53:33.969Z,1.00
2023-02-04T16:56:00.616Z,1.05
2023-02-04T16:58:27.090Z,0.90
2023-02-04T17:00:55.539Z,1.10
2023-02-04T17:03:21.964Z,1.30
2023-02-04T17:05:51.270Z,1.20
2023-02-04T17:08:19.604Z,1.30
2023-02-04T17:11:04.320Z,1.05
2023-02-04T17:13:30.807Z,1.05
2023-02-04T17:16:01.816Z,0.73
2023-02-04T17:18:29.293Z,1.52
2023-02-04T17:20:56.184Z,0.95
2023-02-04T17:23:22.741Z,1.23
2023-02-04T17:25:49.171Z,1.02
2023-02-04T17:28:15.708Z,1.10
2023-02-04T17:30:42.234Z,1.52
2023-02-04T17:33:08.959Z,1.20
2023-02-04T17:35:35.694Z,1.40
2023-02-04T17:38:02.558Z,1.45
2023-02-04T17:40:29.022Z,1.55
2023-02-04T17:42:56.447Z,1.50
2023-02-04T17:45:23.259Z,1.65
2023-02-04T17:47:49.675Z,1.40
2023-02-04T17:50:20.794Z,1.70
2023-02-04T17:52:47.570Z,1.65
2023-02-04T17:55:22.427Z,1.60
2023-02-04T17:57:49.538Z,1.70
2023-02-04T18:00:17.318Z,1.73
2023-02-04T18:02:45.421Z,1.92
2023-02-04T18:05:17.750Z,1.52
2023-02-04T18:07:53.492Z,2.00
2023-02-04T18:10:27.342Z,2.05
2023-02-04T18:12:55.237Z,1.65
2023-02-04T18:15:26.754Z,2.15
2023-02-04T18:17:57.230Z,2.20
2023-02-04T18:20:23.618Z,2.22
2023-02-04T18:22:55.398Z,2.00
2023-02-04T18:25:21.859Z,2.47
2023-02-04T18:27:48.337Z,2.00
2023-02-04T18:30:22.244Z,2.78
2023-02-04T18:32:49.165Z,2.17
2023-02-04T18:35:24.569Z,2.40
2023-02-04T18:37:51.829Z,2.60
2023-02-04T18:40:22.331Z,2.50
2023-02-04T18:42:49.721Z,2.60
2023-02-04T18:45:25.003Z,2.40
2023-02-04T18:47:54.197Z,2.50
2023-02-04T18:50:28.147Z,2.80
2023-02-04T18:52:56.336Z,2.33
2023-02-04T18:55:26.754Z,2.13
2023-02-04T18:57:54.911Z,1.98
2023-02-04T19:00:27.672Z,1.90
2023-02-04T19:02:55.312Z,2.00
2023-02-04T19:05:40.553Z,2.08
2023-02-04T19:08:06.980Z,1.88
2023-02-04T19:10:35.922Z,1.90
2023-02-04T19:13:21.361Z,1.70
2023-02-04T19:16:17.259Z,1.50
2023-02-04T19:18:43.938Z,1.65
2023-02-04T19:21:13.619Z,1.70
2023-02-04T19:23:40.143Z,1.83
2023-02-04T19:26:28.925Z,1.35
2023-02-04T19:28:55.741Z,1.70
2023-02-04T19:31:22.224Z,1.63
2023-02-04T19:33:50.553Z,1.52
2023-02-04T19:36:34.168Z,1.60
2023-02-04T19:39:23.863Z,1.80
2023-02-04T19:41:53.580Z,1.40
2023-02-04T19:44:35.812Z,1.48
2023-02-04T19:47:21.052Z,1.70
2023-02-04T19:49:47.857Z,1.75
2023-02-04T19:52:34.904Z,1.60
2023-02-04T19:55:16.569Z,1.40
2023-02-04T19:57:48.661Z,1.73
2023-02-04T20:00:44.746Z,1.70
2023-02-04T20:03:14.129Z,1.63
2023-02-04T20:05:41.135Z,1.70
2023-02-04T20:08:27.591Z,1.65
2023-02-04T20:10:54.191Z,1.45
2023-02-04T20:13:22.342Z,1.60
2023-02-04T20:15:50.557Z,1.67
2023-02-04T20:18:24.943Z,1.60
2023-02-04T20:20:55.913Z,1.55
2023-02-04T20:23:29.123Z,1.50
2023-02-04T20:25:56.356Z,1.52
2023-02-04T20:28:30.450Z,1.27
2023-02-04T20:30:58.490Z,1.70
2023-02-04T20:33:36.493Z,1.55
2023-02-04T20:36:24.100Z,1.60
2023-02-04T20:38:50.609Z,1.67
2023-02-04T20:41:19.108Z,1.73
2023-02-04T20:43:45.674Z,1.70
2023-02-04T20:46:18.543Z,1.80
2023-02-04T20:48:45.344Z,1.55
2023-02-04T20:51:23.278Z,2.00
2023-02-04T20:53:50.834Z,1.80
2023-02-04T20:56:22.275Z,2.17
2023-02-04T20:58:49.901Z,1.85
2023-02-04T21:01:25.566Z,2.10
2023-02-04T21:03:54.074Z,2.08
2023-02-04T21:06:20.463Z,2.10
2023-02-04T21:08:47.927Z,2.00
2023-02-04T21:11:14.305Z,1.77
2023-02-04T21:13:41.121Z,1.75
2023-02-04T21:16:08.842Z,1.70
2023-02-04T21:18:35.308Z,1.85
2023-02-04T21:21:04.229Z,2.08
2023-02-04T21:23:30.719Z,1.90
2023-02-04T21:25:57.172Z,1.95
2023-02-04T21:28:23.922Z,1.48
2023-02-04T21:30:50.481Z,2.00
2023-02-04T21:33:17.311Z,1.90
2023-02-04T21:35:43.882Z,1.75
2023-02-04T21:38:11.587Z,1.90
2023-02-04T21:40:38.489Z,2.00
2023-02-04T21:43:07.611Z,2.05
2023-02-04T21:45:35.353Z,2.33
2023-02-04T21:48:02.041Z,1.70
2023-02-04T21:50:28.914Z,2.08
2023-02-04T21:52:55.348Z,1.73
2023-02-04T21:55:25.945Z,1.73
2023-02-04T21:57:53.234Z,1.58
2023-02-04T22:00:22.777Z,1.83
2023-02-04T22:02:49.797Z,2.03
2023-02-04T22:05:16.322Z,1.55
2023-02-04T22:07:42.858Z,1.92
2023-02-04T22:10:11.017Z,1.80
2023-02-04T22:12:37.582Z,1.92
2023-02-04T22:15:04.754Z,1.80
2023-02-04T22:17:31.269Z,1.83
2023-02-04T22:19:57.718Z,1.73
2023-02-04T22:22:24.138Z,1.77
2023-02-04T22:24:50.504Z,1.67
2023-02-04T22:27:16.962Z,1.40
2023-02-04T22:29:43.614Z,1.55
2023-02-04T22:32:10.140Z,1.48
2023-02-04T22:34:36.635Z,1.67
2023-02-04T22:37:03.188Z,1.70
2023-02-04T22:39:29.643Z,1.50
2023-02-04T22:41:56.192Z,1.70
2023-02-04T22:44:22.876Z,1.85
2023-02-04T22:46:49.341Z,1.80
2023-02-04T22:49:15.805Z,1.50
2023-02-04T22:51:42.248Z,1.88
2023-02-04T22:54:08.695Z,1.40
2023-02-04T22:56:37.522Z,1.48
2023-02-04T22:59:03.932Z,1.23
2023-02-04T23:01:30.363Z,1.45
2023-02-04T23:03:56.798Z,1.40
2023-02-04T23:06:23.493Z,1.50
2023-02-04T23:08:50.284Z,1.50
2023-02-04T23:11:18.547Z,1.60
2023-02-04T23:13:45.749Z,1.30
2023-02-04T23:16:12.230Z,1.33
2023-02-04T23:18:41.561Z,1.70
2023-02-04T23:21:10.152Z,1.88
2023-02-04T23:23:36.794Z,1.40
2023-02-04T23:26:04.088Z,1.50
2023-02-04T23:28:33.458Z,1.40
2023-02-04T23:31:01.826Z,1.52
2023-02-04T23:33:30.855Z,1.73
2023-02-04T23:35:57.392Z,1.60
2023-02-04T23:38:23.932Z,1.60
2023-02-04T23:40:50.510Z,1.73
2023-02-04T23:43:17.058Z,1.73
2023-02-04T23:45:45.601Z,1.40
2023-02-04T23:48:12.340Z,1.48
2023-02-04T23:50:38.723Z,1.40
2023-02-04T23:53:05.139Z,1.70
2023-02-04T23:55:33.043Z,1.50
2023-02-04T23:57:59.651Z,1.55
